createdAt,value
2018-09-18T00:01:06.840Z,6.63
2018-09-18T00:03:35.400Z,7.77
2018-09-18T00:06:04.012Z,6.10
2018-09-18T00:08:38.989Z,6.10
2018-09-18T00:11:07.592Z,6.37
2018-09-18T00:13:36.364Z,6.63
2018-09-18T00:16:05.380Z,7.30
2018-09-18T00:18:34.019Z,6.87
2018-09-18T00:21:02.580Z,5.87
2018-09-18T00:23:31.078Z,6.40
2018-09-18T00:26:06.194Z,6.97
2018-09-18T00:28:39.322Z,7.20
2018-09-18T00:31:12.853Z,7.03
2018-09-18T00:33:46.774Z,7.03
2018-09-18T00:36:21.847Z,6.87
2018-09-18T00:38:55.917Z,7.77
2018-09-18T00:41:32.097Z,8.07
2018-09-18T00:44:06.400Z,6.70
2018-09-18T00:46:42.213Z,8.07
2018-09-18T00:49:15.981Z,5.87
2018-09-18T00:51:51.270Z,7.53
2018-09-18T00:54:29.801Z,8.87
2018-09-18T00:57:05.457Z,5.93
2018-09-18T01:00:10.540Z,6.37
2018-09-18T01:03:25.408Z,6.53
2018-09-18T01:05:58.756Z,8.37
2018-09-18T01:08:34.276Z,6.97
2018-09-18T01:11:08.764Z,6.40
2018-09-18T01:13:43.975Z,6.23
2018-09-18T01:16:12.784Z,6.10
2018-09-18T01:18:47.853Z,7.10
2018-09-18T01:21:22.637Z,6.47
2018-09-18T01:23:58.444Z,6.10
2018-09-18T01:26:34.186Z,5.90
2018-09-18T01:29:09.054Z,6.77
2018-09-18T01:31:42.622Z,6.30
2018-09-18T01:34:17.460Z,7.33
2018-09-18T01:36:51.513Z,6.43
2018-09-18T01:39:20.274Z,6.83
2018-09-18T01:41:48.840Z,6.40
2018-09-18T01:44:17.376Z,7.17
2018-09-18T01:46:45.940Z,6.60
2018-09-18T01:49:14.492Z,7.33
2018-09-18T01:51:43.021Z,6.60
2018-09-18T01:54:11.625Z,6.83
2018-09-18T01:56:40.209Z,6.27
2018-09-18T01:59:08.784Z,6.70
2018-09-18T02:01:39.008Z,6.63
2018-09-18T02:04:07.644Z,8.63
2018-09-18T02:06:36.187Z,7.73
2018-09-18T02:09:05.948Z,6.37
2018-09-18T02:11:34.488Z,8.87
2018-09-18T02:14:03.055Z,7.07
2018-09-18T02:16:31.577Z,6.90
2018-09-18T02:19:00.128Z,7.97
2018-09-18T02:21:28.655Z,6.17
2018-09-18T02:23:57.216Z,6.00
2018-09-18T02:26:25.756Z,6.70
2018-09-18T02:28:54.330Z,8.03
2018-09-18T02:31:22.857Z,6.23
2018-09-18T02:33:51.413Z,6.67
2018-09-18T02:36:20.034Z,6.97
2018-09-18T02:38:49.047Z,7.73
2018-09-18T02:41:17.605Z,8.83
2018-09-18T02:43:46.469Z,7.67
2018-09-18T02:46:15.058Z,8.00
2018-09-18T02:48:43.719Z,7.47
2018-09-18T02:51:12.323Z,8.13
2018-09-18T02:53:40.888Z,7.10
2018-09-18T02:56:09.444Z,8.23
2018-09-18T02:58:38.004Z,7.20
2018-09-18T03:01:06.536Z,10.23
2018-09-18T03:03:35.099Z,8.07
2018-09-18T03:06:03.613Z,7.67
2018-09-18T03:08:32.197Z,7.07
2018-09-18T03:11:00.736Z,7.50
2018-09-18T03:13:29.355Z,6.63
2018-09-18T03:15:57.888Z,7.40
2018-09-18T03:18:26.475Z,7.83
2018-09-18T03:20:55.059Z,7.93
2018-09-18T03:23:23.625Z,7.40
2018-09-18T03:25:52.145Z,7.77
2018-09-18T03:28:20.762Z,7.03
2018-09-18T03:30:49.288Z,11.13
2018-09-18T03:33:17.908Z,6.93
2018-09-18T03:35:46.613Z,8.27
2018-09-18T03:38:15.089Z,7.07
2018-09-18T03:40:43.652Z,9.00
2018-09-18T03:43:12.192Z,7.93
2018-09-18T03:45:40.774Z,7.67
2018-09-18T03:48:09.380Z,8.47
2018-09-18T03:50:37.976Z,9.43
2018-09-18T03:53:06.495Z,7.63
2018-09-18T03:55:35.045Z,7.47
2018-09-18T03:58:03.583Z,7.57
2018-09-18T04:00:32.148Z,8.67
2018-09-18T04:03:00.694Z,7.73
2018-09-18T04:05:29.261Z,8.93
2018-09-18T04:07:57.813Z,6.87
2018-09-18T04:10:26.365Z,8.63
2018-09-18T04:12:54.908Z,8.20
2018-09-18T04:15:23.576Z,9.13
2018-09-18T04:17:52.192Z,8.23
2018-09-18T04:20:20.786Z,8.37
2018-09-18T04:22:49.318Z,7.87
2018-09-18T04:25:18.247Z,8.00
2018-09-18T04:27:48.106Z,7.90
2018-09-18T04:30:18.345Z,7.87
2018-09-18T04:32:46.919Z,8.30
2018-09-18T04:35:15.481Z,7.90
2018-09-18T04:37:44.104Z,7.97
2018-09-18T04:40:12.720Z,7.53
2018-09-18T04:42:41.388Z,8.23
2018-09-18T04:45:12.174Z,7.83
2018-09-18T04:47:41.593Z,8.07
2018-09-18T04:50:10.906Z,8.20
2018-09-18T04:52:39.432Z,8.10
2018-09-18T04:55:08.815Z,8.40
2018-09-18T04:57:37.840Z,8.40
2018-09-18T05:00:07.996Z,9.83
2018-09-18T05:02:40.510Z,7.63
2018-09-18T05:05:09.513Z,7.97
2018-09-18T05:07:38.964Z,7.83
2018-09-18T05:10:07.586Z,9.07
2018-09-18T05:12:36.805Z,8.57
2018-09-18T05:15:06.486Z,8.33
2018-09-18T05:17:35.139Z,9.07
2018-09-18T05:20:04.578Z,8.13
2018-09-18T05:22:33.790Z,8.20
2018-09-18T05:25:04.239Z,8.83
2018-09-18T05:27:32.764Z,9.17
2018-09-18T05:30:01.867Z,8.67
2018-09-18T05:32:30.905Z,8.30
2018-09-18T05:35:00.057Z,8.63
2018-09-18T05:37:28.586Z,8.50
2018-09-18T05:39:57.116Z,8.57
2018-09-18T05:42:25.672Z,7.53
2018-09-18T05:44:54.500Z,8.83
2018-09-18T05:47:23.056Z,10.43
2018-09-18T05:49:51.643Z,9.20
2018-09-18T05:52:20.227Z,23.00
2018-09-18T05:54:48.757Z,11.83
2018-09-18T05:57:17.692Z,8.80
2018-09-18T05:59:46.253Z,8.93
2018-09-18T06:02:14.823Z,9.70
2018-09-18T06:04:43.377Z,10.90
2018-09-18T06:07:11.956Z,8.70
2018-09-18T06:09:40.489Z,8.73
2018-09-18T06:12:09.087Z,9.40
2018-09-18T06:14:37.618Z,10.33
2018-09-18T06:17:06.181Z,9.10
2018-09-18T06:19:35.560Z,9.13
2018-09-18T06:22:04.125Z,9.07
2018-09-18T06:24:32.729Z,9.27
2018-09-18T06:27:01.294Z,8.87
2018-09-18T06:29:29.844Z,8.30
2018-09-18T06:31:58.418Z,9.30
2018-09-18T06:34:26.949Z,9.13
2018-09-18T06:36:55.637Z,15.60
2018-09-18T06:39:24.140Z,8.37
2018-09-18T06:41:52.699Z,10.60
2018-09-18T06:44:21.234Z,7.83
2018-09-18T06:46:49.787Z,7.80
2018-09-18T06:49:18.313Z,7.90
2018-09-18T06:51:46.929Z,8.17
2018-09-18T06:54:15.467Z,7.80
2018-09-18T06:56:44.033Z,10.57
2018-09-18T06:59:12.562Z,9.67
2018-09-18T07:01:41.138Z,9.67
2018-09-18T07:04:09.925Z,10.80
2018-09-18T07:06:38.601Z,10.10
2018-09-18T07:09:08.448Z,8.10
2018-09-18T07:11:37.356Z,8.37
2018-09-18T07:14:06.027Z,8.97
2018-09-18T07:16:34.893Z,11.10
2018-09-18T07:19:03.432Z,8.87
2018-09-18T07:21:32.003Z,11.13
2018-09-18T07:24:00.596Z,10.33
2018-09-18T07:26:29.166Z,8.97
2018-09-18T07:28:57.709Z,8.43
2018-09-18T07:31:26.248Z,7.70
2018-09-18T07:33:54.884Z,8.17
2018-09-18T07:36:23.400Z,7.07
2018-09-18T07:38:51.961Z,7.77
2018-09-18T07:41:27.099Z,8.37
2018-09-18T07:43:55.656Z,7.93
2018-09-18T07:46:24.180Z,10.23
2018-09-18T07:48:52.846Z,7.40
2018-09-18T07:51:21.388Z,8.57
2018-09-18T07:53:50.072Z,8.03
2018-09-18T07:56:18.604Z,7.97
2018-09-18T07:58:48.069Z,9.67
2018-09-18T08:01:23.866Z,11.13
2018-09-18T08:03:52.702Z,9.17
2018-09-18T08:06:21.229Z,12.67
2018-09-18T08:08:53.550Z,8.97
2018-09-18T08:11:22.130Z,8.87
2018-09-18T08:13:50.920Z,10.60
2018-09-18T08:16:19.455Z,17.13
2018-09-18T08:18:48.138Z,10.63
2018-09-18T08:21:16.630Z,13.37
2018-09-18T08:23:45.205Z,14.77
2018-09-18T08:26:13.736Z,14.97
2018-09-18T08:28:42.311Z,12.63
2018-09-18T08:31:10.844Z,9.27
2018-09-18T08:33:39.429Z,12.73
2018-09-18T08:36:08.069Z,9.00
2018-09-18T08:38:36.620Z,14.73
2018-09-18T08:41:05.230Z,12.13
2018-09-18T08:43:34.305Z,11.00
2018-09-18T08:46:02.853Z,12.93
2018-09-18T08:48:32.339Z,10.40
2018-09-18T08:51:01.894Z,9.33
2018-09-18T08:53:31.589Z,9.23
2018-09-18T08:56:00.186Z,10.93
2018-09-18T08:58:28.732Z,9.93
2018-09-18T09:00:57.384Z,9.73
2018-09-18T09:03:25.956Z,12.47
2018-09-18T09:05:54.543Z,10.27
2018-09-18T09:08:23.179Z,8.83
2018-09-18T09:10:51.641Z,12.47
2018-09-18T09:13:20.238Z,12.53
2018-09-18T09:15:48.748Z,11.10
2018-09-18T09:18:17.387Z,8.33
2018-09-18T09:20:45.932Z,9.47
2018-09-18T09:23:14.532Z,9.70
2018-09-18T09:25:43.121Z,10.50
2018-09-18T09:28:11.650Z,11.63
2018-09-18T09:30:40.209Z,10.90
2018-09-18T09:33:08.778Z,9.87
2018-09-18T09:35:37.335Z,9.30
2018-09-18T09:38:06.118Z,12.43
2018-09-18T09:40:34.681Z,14.00
2018-09-18T09:43:03.224Z,10.40
2018-09-18T09:45:31.804Z,12.70
2018-09-18T09:48:00.315Z,8.20
2018-09-18T09:50:28.900Z,11.50
2018-09-18T09:52:57.429Z,12.73
2018-09-18T09:55:26.039Z,10.97
2018-09-18T09:57:54.580Z,8.77
2018-09-18T10:00:28.341Z,14.93
2018-09-18T10:02:56.898Z,8.37
2018-09-18T10:05:25.457Z,9.30
2018-09-18T10:07:54.012Z,10.10
2018-09-18T10:10:22.613Z,12.27
2018-09-18T10:12:51.132Z,13.73
2018-09-18T10:15:19.743Z,11.10
2018-09-18T10:17:48.339Z,7.80
2018-09-18T10:20:16.827Z,7.30
2018-09-18T10:22:45.362Z,8.50
2018-09-18T10:25:13.967Z,8.97
2018-09-18T10:27:42.510Z,7.63
2018-09-18T10:30:11.084Z,7.57
2018-09-18T10:32:39.770Z,8.53
2018-09-18T10:35:08.299Z,8.67
2018-09-18T10:37:36.906Z,7.00
2018-09-18T10:40:05.543Z,8.07
2018-09-18T10:42:34.086Z,7.00
2018-09-18T10:45:02.652Z,6.20
2018-09-18T10:47:31.205Z,8.07
2018-09-18T10:50:02.135Z,8.77
2018-09-18T10:52:31.509Z,10.70
2018-09-18T10:55:00.904Z,6.90
2018-09-18T10:57:29.471Z,5.90
2018-09-18T10:59:58.149Z,10.73
2018-09-18T11:02:26.686Z,6.57
2018-09-18T11:04:55.453Z,10.00
2018-09-18T11:07:24.214Z,6.93
2018-09-18T11:09:53.053Z,8.03
2018-09-18T11:12:21.660Z,8.23
2018-09-18T11:14:50.192Z,7.50
2018-09-18T11:17:18.765Z,10.23
2018-09-18T11:19:48.689Z,6.33
2018-09-18T11:22:18.300Z,10.60
2018-09-18T11:24:46.841Z,6.63
2018-09-18T11:27:15.349Z,8.43
2018-09-18T11:29:43.878Z,6.33
2018-09-18T11:32:12.558Z,12.27
2018-09-18T11:34:41.129Z,9.60
2018-09-18T11:37:09.693Z,7.33
2018-09-18T11:39:38.216Z,8.63
2018-09-18T11:42:06.785Z,9.00
2018-09-18T11:44:41.821Z,9.67
2018-09-18T11:47:13.392Z,7.73
2018-09-18T11:49:46.042Z,8.30
2018-09-18T11:52:17.890Z,9.97
2018-09-18T11:54:49.080Z,13.30
2018-09-18T11:57:26.864Z,7.07
2018-09-18T12:00:00.184Z,6.93
2018-09-18T12:02:31.802Z,6.30
2018-09-18T12:05:01.991Z,9.03
2018-09-18T12:07:37.069Z,5.67
2018-09-18T12:10:10.622Z,7.53
2018-09-18T12:12:41.358Z,8.17
2018-09-18T12:15:13.100Z,11.73
2018-09-18T12:17:47.201Z,10.87
2018-09-18T12:20:18.351Z,6.87
2018-09-18T12:22:48.509Z,8.20
2018-09-18T12:25:17.133Z,5.67
2018-09-18T12:27:50.002Z,6.37
2018-09-18T12:30:22.781Z,6.57
2018-09-18T12:32:55.651Z,6.63
2018-09-18T12:35:26.813Z,19.27
2018-09-18T12:37:58.009Z,38.47
2018-09-18T12:40:28.740Z,17.17
2018-09-18T12:43:02.705Z,18.50
2018-09-18T12:45:32.388Z,14.10
2018-09-18T12:48:01.340Z,12.77
2018-09-18T12:50:36.948Z,10.50
2018-09-18T12:53:08.577Z,13.03
2018-09-18T12:55:42.438Z,9.40
2018-09-18T12:58:18.280Z,8.27
2018-09-18T13:00:50.489Z,14.23
2018-09-18T13:03:23.317Z,8.03
2018-09-18T13:05:55.070Z,12.63
2018-09-18T13:08:24.160Z,12.47
2018-09-18T13:10:58.045Z,12.70
2018-09-18T13:13:31.272Z,12.83
2018-09-18T13:16:11.522Z,17.77
2018-09-18T13:18:54.780Z,8.03
2018-09-18T13:21:32.266Z,6.23
2018-09-18T13:24:12.435Z,10.40
2018-09-18T13:26:48.599Z,7.67
2018-09-18T13:29:24.679Z,6.97
2018-09-18T13:32:02.105Z,6.07
2018-09-18T13:34:38.635Z,6.23
2018-09-18T13:37:15.607Z,8.57
2018-09-18T13:39:51.102Z,7.63
2018-09-18T13:42:27.465Z,9.17
2018-09-18T13:45:04.509Z,10.10
2018-09-18T13:47:39.281Z,15.17
2018-09-18T13:50:20.822Z,15.57
2018-09-18T13:52:58.412Z,13.47
2018-09-18T13:55:42.579Z,8.53
2018-09-18T13:58:22.148Z,6.77
2018-09-18T14:00:59.717Z,8.17
2018-09-18T14:03:39.677Z,5.80
2018-09-18T14:06:16.286Z,5.43
2018-09-18T14:08:54.228Z,5.87
2018-09-18T14:11:32.576Z,5.17
2018-09-18T14:14:14.973Z,13.77
2018-09-18T14:16:52.728Z,8.63
2018-09-18T14:19:28.370Z,7.10
2018-09-18T14:22:07.849Z,5.13
2018-09-18T14:24:44.158Z,5.17
2018-09-18T14:27:21.597Z,5.47
2018-09-18T14:29:57.011Z,7.53
2018-09-18T14:32:34.683Z,6.10
2018-09-18T14:35:11.111Z,9.47
2018-09-18T14:37:50.190Z,9.53
2018-09-18T14:40:30.681Z,6.00
2018-09-18T14:43:06.387Z,8.70
2018-09-18T14:45:41.307Z,5.53
2018-09-18T14:48:18.198Z,6.97
2018-09-18T14:50:56.884Z,5.80
2018-09-18T14:53:32.938Z,4.87
2018-09-18T14:56:10.259Z,5.73
2018-09-18T14:58:51.355Z,11.17
2018-09-18T15:01:28.910Z,5.33
2018-09-18T15:04:10.374Z,8.03
2018-09-18T15:06:49.549Z,6.23
2018-09-18T15:09:25.337Z,5.93
2018-09-18T15:12:03.009Z,7.03
2018-09-18T15:14:38.700Z,6.17
2018-09-18T15:17:21.219Z,5.83
2018-09-18T15:20:00.631Z,5.47
2018-09-18T15:22:38.206Z,5.20
2018-09-18T15:25:15.113Z,4.77
2018-09-18T15:27:55.260Z,6.40
2018-09-18T15:30:31.421Z,8.27
2018-09-18T15:33:08.700Z,4.53
2018-09-18T15:38:38.757Z,4.10
2018-09-18T15:41:15.389Z,6.03
2018-09-18T15:43:50.098Z,4.30
2018-09-18T15:46:29.877Z,5.70
2018-09-18T15:49:05.903Z,4.10
2018-09-18T15:51:42.941Z,4.37
2018-09-18T15:54:17.590Z,4.63
2018-09-18T15:56:54.307Z,5.43
2018-09-18T15:59:30.203Z,5.83
2018-09-18T16:02:11.263Z,4.63
2018-09-18T16:04:55.186Z,7.10
2018-09-18T16:07:39.287Z,5.33
2018-09-18T16:10:18.431Z,5.43
2018-09-18T16:13:05.151Z,5.70
2018-09-18T16:15:44.756Z,6.27
2018-09-18T16:18:22.408Z,9.40
2018-09-18T16:20:57.774Z,9.00
2018-09-18T16:23:38.862Z,12.00
2018-09-18T16:26:10.898Z,13.57
2018-09-18T16:28:39.596Z,16.07
2018-09-18T16:31:08.182Z,14.63
2018-09-18T16:33:39.298Z,16.60
2018-09-18T16:36:09.536Z,21.30
2018-09-18T16:38:42.388Z,25.97
2018-09-18T16:41:19.844Z,20.30
2018-09-18T16:43:50.015Z,18.87
2018-09-18T16:46:19.501Z,23.03
2018-09-18T16:48:52.397Z,26.17
2018-09-18T16:51:21.529Z,26.40
2018-09-18T16:53:50.075Z,21.60
2018-09-18T16:56:18.653Z,21.63
2018-09-18T16:58:47.238Z,14.67
2018-09-18T17:01:15.851Z,11.53
2018-09-18T17:03:44.404Z,10.10
2018-09-18T17:06:12.976Z,6.60
2018-09-18T17:08:41.586Z,6.00
2018-09-18T17:11:10.200Z,3.73
2018-09-18T17:13:38.710Z,4.53
2018-09-18T17:16:07.304Z,3.83
2018-09-18T17:18:35.850Z,5.07
2018-09-18T17:21:04.456Z,3.33
2018-09-18T17:23:32.991Z,4.47
2018-09-18T17:26:01.546Z,5.90
2018-09-18T17:28:30.211Z,5.17
2018-09-18T17:31:05.106Z,7.53
2018-09-18T17:33:41.047Z,3.83
2018-09-18T17:38:49.705Z,3.67
2018-09-18T17:41:18.582Z,4.70
2018-09-18T17:43:47.100Z,3.77
2018-09-18T17:46:25.460Z,6.00
2018-09-18T17:49:00.519Z,4.17
2018-09-18T17:51:34.551Z,3.57
2018-09-18T17:54:09.790Z,3.57
2018-09-18T17:56:44.801Z,3.67
2018-09-18T17:59:16.170Z,6.00
2018-09-18T18:01:46.124Z,6.50
2018-09-18T18:04:25.091Z,6.27
2018-09-18T18:06:56.005Z,4.60
2018-09-18T18:09:27.127Z,3.40
2018-09-18T18:11:57.980Z,5.13
2018-09-18T18:14:32.044Z,3.23
2018-09-18T18:17:10.369Z,3.37
2018-09-18T18:19:39.835Z,4.17
2018-09-18T18:22:18.112Z,3.20
2018-09-18T18:24:47.242Z,2.83
2018-09-18T18:27:16.093Z,4.00
2018-09-18T18:29:44.624Z,3.87
2018-09-18T18:32:13.188Z,3.20
2018-09-18T18:34:41.710Z,4.13
2018-09-18T18:37:10.345Z,2.93
2018-09-18T18:39:39.132Z,3.13
2018-09-18T18:42:08.838Z,2.93
2018-09-18T18:44:37.948Z,3.77
2018-09-18T18:47:08.599Z,2.47
2018-09-18T18:49:40.172Z,3.33
2018-09-18T18:52:15.045Z,3.87
2018-09-18T18:54:49.319Z,6.50
2018-09-18T18:57:20.348Z,5.13
2018-09-18T18:59:50.222Z,6.13
2018-09-18T19:02:24.821Z,4.60
2018-09-18T19:04:57.884Z,3.60
2018-09-18T19:07:27.891Z,4.20
2018-09-18T19:09:56.497Z,4.50
2018-09-18T19:12:25.308Z,5.30
2018-09-18T19:14:53.858Z,5.60
2018-09-18T19:17:22.426Z,8.43
2018-09-18T19:19:51.098Z,6.03
2018-09-18T19:22:18.659Z,6.40
2018-09-18T19:24:47.304Z,5.43
2018-09-18T19:27:16.109Z,6.73
2018-09-18T19:29:44.957Z,6.43
2018-09-18T19:32:14.089Z,7.00
2018-09-18T19:34:43.363Z,6.43
2018-09-18T19:37:11.926Z,6.97
2018-09-18T19:39:42.137Z,6.67
2018-09-18T19:42:11.963Z,7.17
2018-09-18T19:44:43.217Z,6.77
2018-09-18T19:47:11.785Z,6.07
2018-09-18T19:49:45.339Z,11.27
2018-09-18T19:52:19.910Z,9.00
2018-09-18T19:54:48.665Z,8.23
2018-09-18T19:57:17.223Z,9.73
2018-09-18T19:59:45.756Z,8.60
2018-09-18T20:02:14.376Z,8.93
2018-09-18T20:04:42.907Z,9.13
2018-09-18T20:07:11.469Z,12.13
2018-09-18T20:09:41.976Z,9.27
2018-09-18T20:12:10.629Z,9.27
2018-09-18T20:14:39.212Z,10.93
2018-09-18T20:17:07.778Z,5.87
2018-09-18T20:19:39.720Z,5.10
2018-09-18T20:22:11.297Z,6.40
2018-09-18T20:24:41.195Z,6.37
2018-09-18T20:27:13.651Z,8.67
2018-09-18T20:29:44.671Z,5.80
2018-09-18T20:32:14.336Z,9.67
2018-09-18T20:34:44.376Z,6.40
2018-09-18T20:37:15.504Z,5.03
2018-09-18T20:39:44.223Z,4.97
2018-09-18T20:42:14.580Z,6.20
2018-09-18T20:44:44.455Z,5.20
2018-09-18T20:47:13.108Z,8.03
2018-09-18T20:49:43.319Z,5.67
2018-09-18T20:52:14.751Z,5.30
2018-09-18T20:54:47.057Z,4.90
2018-09-18T20:57:18.653Z,5.17
2018-09-18T20:59:49.854Z,6.17
2018-09-18T21:02:20.584Z,5.10
2018-09-18T21:04:50.835Z,4.33
2018-09-18T21:07:22.932Z,5.77
2018-09-18T21:09:52.571Z,4.80
2018-09-18T21:12:23.427Z,5.00
2018-09-18T21:14:54.166Z,4.90
2018-09-18T21:17:24.174Z,5.30
2018-09-18T21:19:55.839Z,4.70
2018-09-18T21:22:26.440Z,5.63
2018-09-18T21:26:07.043Z,4.07
2018-09-18T21:28:37.355Z,4.40
2018-09-18T21:31:07.150Z,4.20
2018-09-18T21:33:37.545Z,4.70
2018-09-18T21:36:08.376Z,4.60
2018-09-18T21:38:38.527Z,4.97
2018-09-18T21:41:07.710Z,4.93
2018-09-18T21:43:38.872Z,4.37
2018-09-18T21:46:08.382Z,4.73
2018-09-18T21:48:40.098Z,5.37
2018-09-18T21:51:09.334Z,4.90
2018-09-18T21:53:38.105Z,4.60
2018-09-18T21:56:06.637Z,4.67
2018-09-18T21:58:42.306Z,4.90
2018-09-18T22:01:12.114Z,5.00
2018-09-18T22:03:42.365Z,5.10
2018-09-18T22:06:13.225Z,4.27
2018-09-18T22:08:45.906Z,6.37
2018-09-18T22:11:18.940Z,7.60
2018-09-18T22:13:49.180Z,4.40
2018-09-18T22:16:19.873Z,4.30
2018-09-18T22:18:51.910Z,5.03
2018-09-18T22:21:23.186Z,5.23
2018-09-18T22:23:52.665Z,4.70
2018-09-18T22:26:24.247Z,5.37
2018-09-18T22:28:52.887Z,4.43
2018-09-18T22:31:21.364Z,4.70
2018-09-18T22:33:49.921Z,4.80
2018-09-18T22:36:18.448Z,6.93
2018-09-18T22:38:47.040Z,4.50
2018-09-18T22:41:15.617Z,4.87
2018-09-18T22:43:44.164Z,5.57
2018-09-18T22:46:12.725Z,4.87
2018-09-18T22:48:41.252Z,5.90
2018-09-18T22:51:09.824Z,7.73
2018-09-18T22:53:38.344Z,5.00
2018-09-18T22:56:06.914Z,4.20
2018-09-18T22:58:35.451Z,5.30
2018-09-18T23:01:04.030Z,7.23
2018-09-18T23:03:32.580Z,5.83
2018-09-18T23:06:01.150Z,5.37
2018-09-18T23:08:29.704Z,4.80
2018-09-18T23:10:58.267Z,5.73
2018-09-18T23:13:26.793Z,5.37
2018-09-18T23:15:55.354Z,5.17
2018-09-18T23:18:23.879Z,4.70
2018-09-18T23:20:52.461Z,9.03
2018-09-18T23:23:20.992Z,6.17
2018-09-18T23:25:49.596Z,4.73
2018-09-18T23:28:18.165Z,6.27
2018-09-18T23:30:46.730Z,5.10
2018-09-18T23:33:15.257Z,5.20
2018-09-18T23:35:43.822Z,6.00
2018-09-18T23:38:12.351Z,6.87
2018-09-18T23:40:40.914Z,5.87
2018-09-18T23:43:09.486Z,5.50
2018-09-18T23:45:38.053Z,4.63
2018-09-18T23:48:06.601Z,9.10
2018-09-18T23:50:35.164Z,5.53
2018-09-18T23:53:03.716Z,5.83
2018-09-18T23:55:32.684Z,7.10
2018-09-18T23:58:01.213Z,5.40
